EDT,Max TemperatureF,Mean TemperatureF,Min TemperatureF,Max Dew PointF,MeanDew PointF,Min DewpointF,Max Humidity, Mean Humidity, Min Humidity, Max Sea Level PressureIn, Mean Sea Level PressureIn, Min Sea Level PressureIn, Max VisibilityMiles, Mean VisibilityMiles, Min VisibilityMiles, Max Wind SpeedMPH, Mean Wind SpeedMPH, Max Gust SpeedMPH,PrecipitationIn, CloudCover, Events, WindDirDegrees
2013-9-1,81,73,64,72,68,64,100,87,74,29.89,29.84,29.76,10,4,0,25,1,33,0.16,7,Fog-Rain-Thunderstorm,320
2013-9-2,77,71,64,70,66,61,100,85,69,29.85,29.78,29.65,10,6,1,18,3,25,0.82,7,Rain-Thunderstorm,213
2013-9-3,72,65,58,63,58,54,100,81,61,29.88,29.77,29.68,10,10,7,16,6,21,0.00,5,,280
2013-9-4,75,65,54,56,55,51,93,70,46,29.96,29.88,29.82,10,10,10,18,7,29,0.00,4,,275
2013-9-5,67,56,45,57,50,41,100,72,43,30.13,29.97,29.84,10,10,10,18,6,26,0.00,4,,297
2013-9-6,63,52,40,46,41,37,100,70,39,30.25,30.19,30.09,10,7,0,10,2,15,0.00,1,Fog,275
2013-9-7,73,58,42,58,47,41,100,68,35,30.09,30.00,29.83,10,9,2,12,3,15,T,2,Rain,249
2013-9-8,68,56,43,58,52,40,93,68,42,30.09,29.86,29.76,10,10,3,17,6,24,T,5,Rain,278
2013-9-9,66,52,38,51,42,37,100,72,44,30.23,30.17,30.09,10,6,0,12,2,16,0.00,2,Fog,204
2013-9-10,76,64,52,70,63,50,93,86,79,30.14,30.05,29.97,10,6,2,17,5,29,0.17,5,Rain-Thunderstorm,225
2013-9-11,90,77,64,73,68,64,100,76,52,30.12,30.03,29.91,10,3,0,28,4,37,0.12,2,Fog-Rain-Thunderstorm,230
2013-9-12,80,72,63,72,66,61,100,85,69,29.98,29.81,29.63,10,4,0,16,4,25,1.12,7,Fog-Rain-Thunderstorm,213
2013-9-13,69,60,50,63,57,50,93,83,73,29.85,29.70,29.59,10,8,2,15,8,20,0.05,7,Rain,298
2013-9-14,56,51,46,48,46,42,93,82,71,30.08,29.93,29.81,10,8,3,14,8,24,0.01,7,,288
2013-9-15,65,52,39,50,44,38,93,71,48,30.16,30.11,30.03,10,7,0,12,4,14,0.00,0,Fog,258
2013-9-16,61,50,39,52,48,35,100,84,67,30.25,30.08,30.01,10,10,6,15,5,21,0.06,5,Rain,313
2013-9-17,62,49,35,43,38,33,96,68,39,30.42,30.35,30.28,10,9,2,13,3,17,0.00,0,,329
2013-9-18,67,53,39,48,42,38,100,70,40,30.34,30.27,30.15,10,4,0,10,2,14,0.00,1,Fog,250
2013-9-19,74,57,40,54,44,39,100,68,35,30.17,30.13,30.03,10,4,0,9,1,22,0.00,2,Fog,259
2013-9-20,76,59,42,55,47,42,100,72,43,30.09,30.05,29.95,10,4,0,13,3,16,0.00,2,Fog,200
2013-9-21,70,59,48,63,56,48,100,79,58,29.99,29.81,29.59,10,7,2,25,10,37,0.67,6,Rain,184
2013-9-22,60,53,45,63,49,40,97,75,53,29.87,29.70,29.58,10,8,1,22,10,29,0.51,7,Rain,279
2013-9-23,57,48,39,41,39,37,89,72,55,30.03,29.96,29.87,10,10,10,20,9,28,0.00,4,,308
2013-9-24,61,50,38,44,39,35,86,66,46,30.03,29.94,29.87,10,10,10,17,7,26,0.00,0,,294
2013-9-25,66,53,39,50,45,39,100,74,48,29.94,29.91,29.85,10,10,10,13,4,16,0.00,1,Rain,283
2013-9-26,64,55,45,49,47,44,93,75,56,30.11,30.01,29.94,10,10,3,12,2,16,T,5,,309
2013-9-27,59,50,40,50,44,39,100,86,72,30.29,30.20,30.11,10,5,0,8,1,,T,4,Fog-Rain,296
2013-9-28,72,58,44,54,48,45,100,71,41,30.35,30.29,30.22,10,4,0,7,1,,0.00,2,Fog-Rain,150
2013-9-29,72,57,41,52,45,41,100,72,44,30.26,30.19,30.04,10,4,0,10,1,13,0.00,2,Fog-Rain,100
2013-9-30,70,55,40,50,43,39,100,75,49,30.11,30.06,29.95,10,4,0,9,1,26,0.00,3,Fog,250